Cabot, Vermont
Current Conditions -  °F | °C
As of 1:16 PM on Tuesday 21 Oct 2014 (Local Time) from KMVL Reporting Station
Light Rain Light Rain  
Wind Chill: 47°   Ceiling: 4200
Heat Index: 47°   Visibility: 6mi
Dew Point: 43°   Wind: 0mph
Humidity: 86%   Direction: NA
Pressure: 30.02"   Gusts: NA
Location:  44.4°N, 72.31°W
Report Text: KMVL 211716Z AUTO 00000KT 6SM -RA BR FEW006 BKN042 OVC049 08/06 A3002 RMK AO2 P0001 T00830061
Loading
Personal Weather Stations






























Interactive Weather Map
Tropical Storm Tracking
New forecast layout! Learn more

10-Day Weather Forecast

Advertisements
Track Severe Weather on mobile